sensor_id;sensor_type;location;lat;lon;timestamp;temperature;humidity
16974;DHT22;8603;46.944;7.412;2023-07-30T00:01:32;16.70;99.90
16974;DHT22;8603;46.944;7.412;2023-07-30T00:03:58;16.80;99.90
16974;DHT22;8603;46.944;7.412;2023-07-30T00:06:24;16.70;99.90
16974;DHT22;8603;46.944;7.412;2023-07-30T00:08:50;16.80;99.90
16974;DHT22;8603;46.944;7.412;2023-07-30T00:11:15;16.80;99.90
16974;DHT22;8603;46.944;7.412;2023-07-30T00:13:41;16.80;99.90
16974;DHT22;8603;46.944;7.412;2023-07-30T00:16:06;16.90;99.90
16974;DHT22;8603;46.944;7.412;2023-07-30T00:18:32;16.90;99.90
16974;DHT22;8603;46.944;7.412;2023-07-30T00:20:58;16.90;99.90
16974;DHT22;8603;46.944;7.412;2023-07-30T00:23:23;16.80;99.90
16974;DHT22;8603;46.944;7.412;2023-07-30T00:25:49;16.80;99.90
16974;DHT22;8603;46.944;7.412;2023-07-30T00:28:14;16.90;99.90
16974;DHT22;8603;46.944;7.412;2023-07-30T00:30:40;16.90;99.90
16974;DHT22;8603;46.944;7.412;2023-07-30T00:33:05;16.90;99.90
16974;DHT22;8603;46.944;7.412;2023-07-30T00:35:31;16.90;99.90
16974;DHT22;8603;46.944;7.412;2023-07-30T00:37:56;16.90;99.90
16974;DHT22;8603;46.944;7.412;2023-07-30T00:40:22;16.80;99.90
16974;DHT22;8603;46.944;7.412;2023-07-30T00:42:47;16.90;99.90
16974;DHT22;8603;46.944;7.412;2023-07-30T00:45:13;16.90;99.90
16974;DHT22;8603;46.944;7.412;2023-07-30T00:47:38;16.80;99.90
16974;DHT22;8603;46.944;7.412;2023-07-30T00:50:06;16.80;99.90
16974;DHT22;8603;46.944;7.412;2023-07-30T00:52:32;16.80;99.90
16974;DHT22;8603;46.944;7.412;2023-07-30T00:54:59;16.90;99.90
16974;DHT22;8603;46.944;7.412;2023-07-30T00:57:27;16.80;99.90
16974;DHT22;8603;46.944;7.412;2023-07-30T00:59:53;16.80;99.90
16974;DHT22;8603;46.944;7.412;2023-07-30T01:02:18;16.90;99.90
16974;DHT22;8603;46.944;7.412;2023-07-30T01:04:44;16.80;99.90
16974;DHT22;8603;46.944;7.412;2023-07-30T01:07:10;16.80;99.90
16974;DHT22;8603;46.944;7.412;2023-07-30T01:09:36;16.90;99.90
16974;DHT22;8603;46.944;7.412;2023-07-30T01:12:03;16.90;99.90
16974;DHT22;8603;46.944;7.412;2023-07-30T01:14:30;16.90;99.90
16974;DHT22;8603;46.944;7.412;2023-07-30T01:16:57;16.90;99.90
16974;DHT22;8603;46.944;7.412;2023-07-30T01:19:22;16.90;99.90
16974;DHT22;8603;46.944;7.412;2023-07-30T01:21:48;16.90;99.90
16974;DHT22;8603;46.944;7.412;2023-07-30T01:24:13;16.90;99.90
16974;DHT22;8603;46.944;7.412;2023-07-30T01:26:44;16.90;99.90
16974;DHT22;8603;46.944;7.412;2023-07-30T01:29:29;16.90;99.90
16974;DHT22;8603;46.944;7.412;2023-07-30T01:32:02;16.90;99.90
16974;DHT22;8603;46.944;7.412;2023-07-30T01:34:30;16.80;99.90
16974;DHT22;8603;46.944;7.412;2023-07-30T01:36:58;16.80;99.90
16974;DHT22;8603;46.944;7.412;2023-07-30T01:39:24;16.80;99.90
16974;DHT22;8603;46.944;7.412;2023-07-30T01:41:52;16.70;99.90
16974;DHT22;8603;46.944;7.412;2023-07-30T01:44:18;16.80;99.90
16974;DHT22;8603;46.944;7.412;2023-07-30T01:46:43;16.80;99.90
16974;DHT22;8603;46.944;7.412;2023-07-30T01:49:09;16.80;99.90
16974;DHT22;8603;46.944;7.412;2023-07-30T01:51:34;16.80;99.90
16974;DHT22;8603;46.944;7.412;2023-07-30T01:54:00;16.70;99.90
16974;DHT22;8603;46.944;7.412;2023-07-30T01:56:25;16.70;99.90
16974;DHT22;8603;46.944;7.412;2023-07-30T01:58:51;16.70;99.90
16974;DHT22;8603;46.944;7.412;2023-07-30T02:01:16;16.70;99.90
16974;DHT22;8603;46.944;7.412;2023-07-30T02:03:42;16.60;99.90
16974;DHT22;8603;46.944;7.412;2023-07-30T02:06:08;16.70;99.90
16974;DHT22;8603;46.944;7.412;2023-07-30T02:08:33;16.60;99.90
16974;DHT22;8603;46.944;7.412;2023-07-30T02:10:59;16.60;99.90
16974;DHT22;8603;46.944;7.412;2023-07-30T02:13:25;16.70;99.90
16974;DHT22;8603;46.944;7.412;2023-07-30T02:15:51;16.70;99.90
16974;DHT22;8603;46.944;7.412;2023-07-30T02:18:17;16.70;99.90
16974;DHT22;8603;46.944;7.412;2023-07-30T02:20:42;16.70;99.90
16974;DHT22;8603;46.944;7.412;2023-07-30T02:23:08;16.70;99.90
16974;DHT22;8603;46.944;7.412;2023-07-30T02:25:34;16.70;99.90
16974;DHT22;8603;46.944;7.412;2023-07-30T02:28:00;16.70;99.90
16974;DHT22;8603;46.944;7.412;2023-07-30T02:30:27;16.70;99.90
16974;DHT22;8603;46.944;7.412;2023-07-30T02:32:53;16.70;99.90
16974;DHT22;8603;46.944;7.412;2023-07-30T02:35:19;16.70;99.90
16974;DHT22;8603;46.944;7.412;2023-07-30T02:37:44;16.70;99.90
16974;DHT22;8603;46.944;7.412;2023-07-30T02:40:10;16.70;99.90
16974;DHT22;8603;46.944;7.412;2023-07-30T02:42:36;16.70;99.90
16974;DHT22;8603;46.944;7.412;2023-07-30T02:45:02;16.70;99.90
16974;DHT22;8603;46.944;7.412;2023-07-30T02:47:27;16.70;99.90
16974;DHT22;8603;46.944;7.412;2023-07-30T02:49:53;16.70;99.90
16974;DHT22;8603;46.944;7.412;2023-07-30T02:52:19;16.70;99.90
16974;DHT22;8603;46.944;7.412;2023-07-30T02:54:44;16.60;99.90
16974;DHT22;8603;46.944;7.412;2023-07-30T02:57:10;16.70;99.90
16974;DHT22;8603;46.944;7.412;2023-07-30T02:59:36;16.60;99.90
16974;DHT22;8603;46.944;7.412;2023-07-30T03:02:03;16.50;99.90
16974;DHT22;8603;46.944;7.412;2023-07-30T03:04:30;16.50;99.90
16974;DHT22;8603;46.944;7.412;2023-07-30T03:06:56;16.40;99.90
16974;DHT22;8603;46.944;7.412;2023-07-30T03:09:22;16.30;99.90
16974;DHT22;8603;46.944;7.412;2023-07-30T03:11:49;16.30;99.90
16974;DHT22;8603;46.944;7.412;2023-07-30T03:14:14;16.30;99.90
16974;DHT22;8603;46.944;7.412;2023-07-30T03:16:40;16.20;99.90
16974;DHT22;8603;46.944;7.412;2023-07-30T03:19:05;16.20;99.90
16974;DHT22;8603;46.944;7.412;2023-07-30T03:21:31;16.20;99.90
16974;DHT22;8603;46.944;7.412;2023-07-30T03:23:56;16.20;99.90
16974;DHT22;8603;46.944;7.412;2023-07-30T03:26:22;16.20;99.90
16974;DHT22;8603;46.944;7.412;2023-07-30T03:28:47;16.10;99.90
16974;DHT22;8603;46.944;7.412;2023-07-30T03:31:13;16.20;99.90
16974;DHT22;8603;46.944;7.412;2023-07-30T03:33:40;16.10;99.90
16974;DHT22;8603;46.944;7.412;2023-07-30T03:36:10;16.10;99.90
16974;DHT22;8603;46.944;7.412;2023-07-30T03:38:35;16.10;99.90
16974;DHT22;8603;46.944;7.412;2023-07-30T03:41:01;16.00;99.90
16974;DHT22;8603;46.944;7.412;2023-07-30T03:43:26;16.00;99.90
16974;DHT22;8603;46.944;7.412;2023-07-30T03:45:52;16.10;99.90
16974;DHT22;8603;46.944;7.412;2023-07-30T03:48:17;16.10;99.90
16974;DHT22;8603;46.944;7.412;2023-07-30T03:50:43;16.10;99.90
16974;DHT22;8603;46.944;7.412;2023-07-30T03:53:09;16.10;99.90
16974;DHT22;8603;46.944;7.412;2023-07-30T03:55:34;16.10;99.90
16974;DHT22;8603;46.944;7.412;2023-07-30T03:58:00;16.20;99.90
16974;DHT22;8603;46.944;7.412;2023-07-30T04:00:25;16.20;99.90
16974;DHT22;8603;46.944;7.412;2023-07-30T04:02:51;16.20;99.90
16974;DHT22;8603;46.944;7.412;2023-07-30T04:05:16;16.30;99.90
16974;DHT22;8603;46.944;7.412;2023-07-30T04:07:42;16.30;99.90
16974;DHT22;8603;46.944;7.412;2023-07-30T04:10:07;16.20;99.90
16974;DHT22;8603;46.944;7.412;2023-07-30T04:12:33;16.30;99.90
16974;DHT22;8603;46.944;7.412;2023-07-30T04:14:59;16.30;99.90
16974;DHT22;8603;46.944;7.412;2023-07-30T04:17:24;16.30;99.90
16974;DHT22;8603;46.944;7.412;2023-07-30T04:19:50;16.30;99.90
16974;DHT22;8603;46.944;7.412;2023-07-30T04:22:15;16.20;99.90
16974;DHT22;8603;46.944;7.412;2023-07-30T04:24:41;16.20;99.90
16974;DHT22;8603;46.944;7.412;2023-07-30T04:27:07;16.20;99.90
16974;DHT22;8603;46.944;7.412;2023-07-30T04:29:32;16.20;99.90
16974;DHT22;8603;46.944;7.412;2023-07-30T04:31:58;16.30;99.90
16974;DHT22;8603;46.944;7.412;2023-07-30T04:34:23;16.30;99.90
16974;DHT22;8603;46.944;7.412;2023-07-30T04:36:49;16.30;99.90
16974;DHT22;8603;46.944;7.412;2023-07-30T04:39:14;16.40;99.90
16974;DHT22;8603;46.944;7.412;2023-07-30T04:41:40;16.40;99.90
16974;DHT22;8603;46.944;7.412;2023-07-30T04:44:05;16.40;99.90
16974;DHT22;8603;46.944;7.412;2023-07-30T04:46:31;16.40;99.90
16974;DHT22;8603;46.944;7.412;2023-07-30T04:48:58;16.40;99.90
16974;DHT22;8603;46.944;7.412;2023-07-30T04:51:24;16.50;99.90
16974;DHT22;8603;46.944;7.412;2023-07-30T04:53:49;16.50;99.90
16974;DHT22;8603;46.944;7.412;2023-07-30T04:56:15;16.60;99.90
16974;DHT22;8603;46.944;7.412;2023-07-30T04:58:40;16.70;99.90
16974;DHT22;8603;46.944;7.412;2023-07-30T05:01:06;16.80;99.90
16974;DHT22;8603;46.944;7.412;2023-07-30T05:03:31;16.90;99.90
16974;DHT22;8603;46.944;7.412;2023-07-30T05:05:57;16.90;99.90
16974;DHT22;8603;46.944;7.412;2023-07-30T05:08:22;17.00;99.90
16974;DHT22;8603;46.944;7.412;2023-07-30T05:10:48;17.00;99.90
16974;DHT22;8603;46.944;7.412;2023-07-30T05:13:13;17.10;99.90
16974;DHT22;8603;46.944;7.412;2023-07-30T05:15:39;17.20;99.90
16974;DHT22;8603;46.944;7.412;2023-07-30T05:18:05;17.40;99.90
16974;DHT22;8603;46.944;7.412;2023-07-30T05:20:32;17.50;99.90
16974;DHT22;8603;46.944;7.412;2023-07-30T05:22:57;17.60;99.90
16974;DHT22;8603;46.944;7.412;2023-07-30T05:25:23;17.60;99.90
16974;DHT22;8603;46.944;7.412;2023-07-30T05:27:49;17.60;99.90
16974;DHT22;8603;46.944;7.412;2023-07-30T05:30:14;17.60;99.90
16974;DHT22;8603;46.944;7.412;2023-07-30T05:32:40;17.80;99.90
16974;DHT22;8603;46.944;7.412;2023-07-30T05:35:06;18.10;99.90
16974;DHT22;8603;46.944;7.412;2023-07-30T05:37:31;18.40;99.90
16974;DHT22;8603;46.944;7.412;2023-07-30T05:39:57;18.70;99.90
16974;DHT22;8603;46.944;7.412;2023-07-30T05:42:22;18.90;99.90
16974;DHT22;8603;46.944;7.412;2023-07-30T05:44:48;19.00;99.90
16974;DHT22;8603;46.944;7.412;2023-07-30T05:47:14;19.00;99.90
16974;DHT22;8603;46.944;7.412;2023-07-30T05:49:41;19.00;99.90
16974;DHT22;8603;46.944;7.412;2023-07-30T05:52:08;19.00;99.90
16974;DHT22;8603;46.944;7.412;2023-07-30T05:54:34;18.90;99.90
16974;DHT22;8603;46.944;7.412;2023-07-30T05:56:59;18.90;99.90
16974;DHT22;8603;46.944;7.412;2023-07-30T05:59:25;18.90;99.90
16974;DHT22;8603;46.944;7.412;2023-07-30T06:01:50;18.80;99.90
16974;DHT22;8603;46.944;7.412;2023-07-30T06:04:16;19.00;99.90
16974;DHT22;8603;46.944;7.412;2023-07-30T06:06:42;19.50;99.90
16974;DHT22;8603;46.944;7.412;2023-07-30T06:09:07;20.10;99.90
16974;DHT22;8603;46.944;7.412;2023-07-30T06:11:33;20.30;99.90
16974;DHT22;8603;46.944;7.412;2023-07-30T06:13:59;21.40;99.90
16974;DHT22;8603;46.944;7.412;2023-07-30T06:16:24;23.40;99.90
16974;DHT22;8603;46.944;7.412;2023-07-30T06:18:50;25.40;99.90
16974;DHT22;8603;46.944;7.412;2023-07-30T06:21:15;26.70;99.90
16974;DHT22;8603;46.944;7.412;2023-07-30T06:23:41;28.00;99.90
16974;DHT22;8603;46.944;7.412;2023-07-30T06:26:06;27.90;99.90
16974;DHT22;8603;46.944;7.412;2023-07-30T06:28:32;27.50;99.90
16974;DHT22;8603;46.944;7.412;2023-07-30T06:31:01;26.70;99.90
16974;DHT22;8603;46.944;7.412;2023-07-30T06:33:27;26.20;99.90
16974;DHT22;8603;46.944;7.412;2023-07-30T06:35:53;25.80;99.90
16974;DHT22;8603;46.944;7.412;2023-07-30T06:38:18;25.60;99.90
16974;DHT22;8603;46.944;7.412;2023-07-30T06:40:44;25.20;99.90
16974;DHT22;8603;46.944;7.412;2023-07-30T06:43:09;24.90;99.90
16974;DHT22;8603;46.944;7.412;2023-07-30T06:45:35;24.70;99.90
16974;DHT22;8603;46.944;7.412;2023-07-30T06:48:00;24.50;99.90
16974;DHT22;8603;46.944;7.412;2023-07-30T06:50:26;24.30;99.90
16974;DHT22;8603;46.944;7.412;2023-07-30T06:52:54;25.40;99.90
16974;DHT22;8603;46.944;7.412;2023-07-30T06:55:20;27.10;99.90
16974;DHT22;8603;46.944;7.412;2023-07-30T06:57:45;29.20;99.90
16974;DHT22;8603;46.944;7.412;2023-07-30T07:00:11;31.40;99.90
16974;DHT22;8603;46.944;7.412;2023-07-30T07:02:37;31.90;99.90
16974;DHT22;8603;46.944;7.412;2023-07-30T07:05:03;31.40;99.90
16974;DHT22;8603;46.944;7.412;2023-07-30T07:07:29;30.30;99.90
16974;DHT22;8603;46.944;7.412;2023-07-30T07:09:56;29.30;99.90
16974;DHT22;8603;46.944;7.412;2023-07-30T07:12:21;28.20;99.90
16974;DHT22;8603;46.944;7.412;2023-07-30T07:14:47;27.50;99.90
16974;DHT22;8603;46.944;7.412;2023-07-30T07:17:12;27.10;99.90
16974;DHT22;8603;46.944;7.412;2023-07-30T07:19:38;26.90;99.90
16974;DHT22;8603;46.944;7.412;2023-07-30T07:22:04;26.70;99.90
16974;DHT22;8603;46.944;7.412;2023-07-30T07:24:30;26.20;99.90
16974;DHT22;8603;46.944;7.412;2023-07-30T07:26:56;25.70;99.90
16974;DHT22;8603;46.944;7.412;2023-07-30T07:29:22;25.20;99.90
16974;DHT22;8603;46.944;7.412;2023-07-30T07:31:48;24.60;99.90
16974;DHT22;8603;46.944;7.412;2023-07-30T07:34:13;24.20;99.90
16974;DHT22;8603;46.944;7.412;2023-07-30T07:36:39;23.80;99.90
16974;DHT22;8603;46.944;7.412;2023-07-30T07:39:05;23.50;99.90
16974;DHT22;8603;46.944;7.412;2023-07-30T07:41:30;23.10;99.90
16974;DHT22;8603;46.944;7.412;2023-07-30T07:43:56;22.40;99.90
16974;DHT22;8603;46.944;7.412;2023-07-30T07:46:22;22.00;99.90
16974;DHT22;8603;46.944;7.412;2023-07-30T07:48:47;21.70;99.90
16974;DHT22;8603;46.944;7.412;2023-07-30T07:51:13;21.70;99.90
16974;DHT22;8603;46.944;7.412;2023-07-30T07:53:38;21.80;99.90
16974;DHT22;8603;46.944;7.412;2023-07-30T07:56:04;22.20;99.90
16974;DHT22;8603;46.944;7.412;2023-07-30T07:58:30;22.90;99.90
16974;DHT22;8603;46.944;7.412;2023-07-30T08:00:56;23.40;99.90
16974;DHT22;8603;46.944;7.412;2023-07-30T08:03:23;23.90;99.90
16974;DHT22;8603;46.944;7.412;2023-07-30T08:05:49;24.10;99.90
16974;DHT22;8603;46.944;7.412;2023-07-30T08:08:15;24.40;99.90
16974;DHT22;8603;46.944;7.412;2023-07-30T08:10:41;24.50;99.90
16974;DHT22;8603;46.944;7.412;2023-07-30T08:13:09;25.00;99.90
16974;DHT22;8603;46.944;7.412;2023-07-30T08:15:35;26.80;99.90
16974;DHT22;8603;46.944;7.412;2023-07-30T08:18:01;29.00;99.90
16974;DHT22;8603;46.944;7.412;2023-07-30T08:20:26;31.30;99.90
16974;DHT22;8603;46.944;7.412;2023-07-30T08:22:52;32.30;99.90
16974;DHT22;8603;46.944;7.412;2023-07-30T08:25:17;32.40;99.90
16974;DHT22;8603;46.944;7.412;2023-07-30T08:27:43;32.90;99.90
16974;DHT22;8603;46.944;7.412;2023-07-30T08:30:09;33.50;99.90
16974;DHT22;8603;46.944;7.412;2023-07-30T08:32:34;33.50;99.90
16974;DHT22;8603;46.944;7.412;2023-07-30T08:35:00;33.10;99.90
16974;DHT22;8603;46.944;7.412;2023-07-30T08:37:25;32.20;99.90
16974;DHT22;8603;46.944;7.412;2023-07-30T08:39:52;31.00;99.90
16974;DHT22;8603;46.944;7.412;2023-07-30T08:42:17;30.30;99.90
16974;DHT22;8603;46.944;7.412;2023-07-30T08:44:43;29.60;99.90
16974;DHT22;8603;46.944;7.412;2023-07-30T08:47:10;29.50;99.90
16974;DHT22;8603;46.944;7.412;2023-07-30T08:49:35;29.60;99.90
16974;DHT22;8603;46.944;7.412;2023-07-30T08:52:02;29.80;99.90
16974;DHT22;8603;46.944;7.412;2023-07-30T08:54:30;30.30;99.90
16974;DHT22;8603;46.944;7.412;2023-07-30T08:56:57;30.70;99.90
16974;DHT22;8603;46.944;7.412;2023-07-30T08:59:24;30.90;99.90
16974;DHT22;8603;46.944;7.412;2023-07-30T09:01:52;30.50;99.90
16974;DHT22;8603;46.944;7.412;2023-07-30T09:04:19;29.60;99.90
16974;DHT22;8603;46.944;7.412;2023-07-30T09:06:49;28.90;99.90
16974;DHT22;8603;46.944;7.412;2023-07-30T09:09:15;27.80;99.90
16974;DHT22;8603;46.944;7.412;2023-07-30T09:11:41;26.90;99.90
16974;DHT22;8603;46.944;7.412;2023-07-30T09:14:07;26.70;99.90
16974;DHT22;8603;46.944;7.412;2023-07-30T09:16:33;27.00;99.90
16974;DHT22;8603;46.944;7.412;2023-07-30T09:18:58;27.90;99.90
16974;DHT22;8603;46.944;7.412;2023-07-30T09:21:34;29.30;99.90
16974;DHT22;8603;46.944;7.412;2023-07-30T09:24:03;29.90;99.90
16974;DHT22;8603;46.944;7.412;2023-07-30T09:26:41;29.90;99.90
16974;DHT22;8603;46.944;7.412;2023-07-30T09:29:08;30.20;99.90
16974;DHT22;8603;46.944;7.412;2023-07-30T09:31:45;29.90;99.70
16974;DHT22;8603;46.944;7.412;2023-07-30T09:34:15;29.70;99.90
16974;DHT22;8603;46.944;7.412;2023-07-30T09:36:41;30.30;99.50
16974;DHT22;8603;46.944;7.412;2023-07-30T09:39:19;30.70;98.50
16974;DHT22;8603;46.944;7.412;2023-07-30T09:41:45;31.10;98.30
16974;DHT22;8603;46.944;7.412;2023-07-30T09:44:19;32.60;96.60
16974;DHT22;8603;46.944;7.412;2023-07-30T09:46:47;33.80;95.70
16974;DHT22;8603;46.944;7.412;2023-07-30T09:49:17;34.70;93.50
16974;DHT22;8603;46.944;7.412;2023-07-30T09:51:44;34.90;92.30
16974;DHT22;8603;46.944;7.412;2023-07-30T09:54:12;34.20;92.40
16974;DHT22;8603;46.944;7.412;2023-07-30T09:56:39;32.80;92.70
16974;DHT22;8603;46.944;7.412;2023-07-30T09:59:06;31.60;94.10
16974;DHT22;8603;46.944;7.412;2023-07-30T10:01:35;30.30;95.20
16974;DHT22;8603;46.944;7.412;2023-07-30T10:04:07;29.00;96.10
16974;DHT22;8603;46.944;7.412;2023-07-30T10:06:33;28.40;97.10
16974;DHT22;8603;46.944;7.412;2023-07-30T10:09:01;27.90;98.90
16974;DHT22;8603;46.944;7.412;2023-07-30T10:11:28;27.80;99.10
16974;DHT22;8603;46.944;7.412;2023-07-30T10:13:54;27.80;99.00
16974;DHT22;8603;46.944;7.412;2023-07-30T10:16:26;27.80;99.00
16974;DHT22;8603;46.944;7.412;2023-07-30T10:18:56;27.70;98.50
16974;DHT22;8603;46.944;7.412;2023-07-30T10:21:26;27.50;98.20
16974;DHT22;8603;46.944;7.412;2023-07-30T10:24:02;27.00;98.70
16974;DHT22;8603;46.944;7.412;2023-07-30T10:26:30;26.50;99.40
16974;DHT22;8603;46.944;7.412;2023-07-30T10:29:17;26.20;99.60
16974;DHT22;8603;46.944;7.412;2023-07-30T10:31:47;26.10;99.90
16974;DHT22;8603;46.944;7.412;2023-07-30T10:34:13;26.10;99.90
16974;DHT22;8603;46.944;7.412;2023-07-30T10:36:47;26.10;99.90
16974;DHT22;8603;46.944;7.412;2023-07-30T10:39:20;26.20;99.90
16974;DHT22;8603;46.944;7.412;2023-07-30T10:41:54;26.30;99.90
16974;DHT22;8603;46.944;7.412;2023-07-30T10:44:33;26.30;99.90
16974;DHT22;8603;46.944;7.412;2023-07-30T10:47:01;26.50;99.90
16974;DHT22;8603;46.944;7.412;2023-07-30T10:49:27;26.70;99.90
16974;DHT22;8603;46.944;7.412;2023-07-30T10:51:57;27.00;99.90
16974;DHT22;8603;46.944;7.412;2023-07-30T10:54:22;27.00;99.90
16974;DHT22;8603;46.944;7.412;2023-07-30T10:56:48;27.00;99.40
16974;DHT22;8603;46.944;7.412;2023-07-30T10:59:15;26.90;99.90
16974;DHT22;8603;46.944;7.412;2023-07-30T11:01:44;27.00;99.90
16974;DHT22;8603;46.944;7.412;2023-07-30T11:04:18;27.00;99.70
16974;DHT22;8603;46.944;7.412;2023-07-30T11:06:51;26.80;99.90
16974;DHT22;8603;46.944;7.412;2023-07-30T11:09:20;26.70;99.90
16974;DHT22;8603;46.944;7.412;2023-07-30T11:11:47;26.70;99.90
16974;DHT22;8603;46.944;7.412;2023-07-30T11:14:17;26.70;99.90
16974;DHT22;8603;46.944;7.412;2023-07-30T11:16:50;26.50;99.90
16974;DHT22;8603;46.944;7.412;2023-07-30T11:19:17;26.50;99.90
16974;DHT22;8603;46.944;7.412;2023-07-30T11:21:51;26.50;99.90
16974;DHT22;8603;46.944;7.412;2023-07-30T11:24:20;26.30;99.90
16974;DHT22;8603;46.944;7.412;2023-07-30T11:26:57;26.30;99.90
16974;DHT22;8603;46.944;7.412;2023-07-30T11:29:26;26.50;99.90
16974;DHT22;8603;46.944;7.412;2023-07-30T11:31:58;26.60;99.90
16974;DHT22;8603;46.944;7.412;2023-07-30T11:34:25;26.80;99.90
16974;DHT22;8603;46.944;7.412;2023-07-30T11:36:52;26.80;99.90
16974;DHT22;8603;46.944;7.412;2023-07-30T11:39:18;26.60;99.70
16974;DHT22;8603;46.944;7.412;2023-07-30T11:41:44;26.30;99.90
16974;DHT22;8603;46.944;7.412;2023-07-30T11:44:30;26.30;99.90
16974;DHT22;8603;46.944;7.412;2023-07-30T11:46:55;26.20;99.90
16974;DHT22;8603;46.944;7.412;2023-07-30T11:49:21;25.90;99.90
16974;DHT22;8603;46.944;7.412;2023-07-30T11:51:47;25.60;99.40
16974;DHT22;8603;46.944;7.412;2023-07-30T11:54:21;25.50;99.90
16974;DHT22;8603;46.944;7.412;2023-07-30T11:56:56;25.60;99.20
16974;DHT22;8603;46.944;7.412;2023-07-30T11:59:22;25.70;98.50
16974;DHT22;8603;46.944;7.412;2023-07-30T12:01:48;25.70;99.00
16974;DHT22;8603;46.944;7.412;2023-07-30T12:04:13;25.80;98.70
16974;DHT22;8603;46.944;7.412;2023-07-30T12:06:48;25.60;98.90
16974;DHT22;8603;46.944;7.412;2023-07-30T12:09:20;25.50;99.50
16974;DHT22;8603;46.944;7.412;2023-07-30T12:14:16;25.40;99.30
16974;DHT22;8603;46.944;7.412;2023-07-30T12:16:42;25.40;98.90
16974;DHT22;8603;46.944;7.412;2023-07-30T12:19:08;25.50;98.70
16974;DHT22;8603;46.944;7.412;2023-07-30T12:21:33;25.50;98.70
16974;DHT22;8603;46.944;7.412;2023-07-30T12:23:59;25.50;97.60
16974;DHT22;8603;46.944;7.412;2023-07-30T12:26:24;25.40;97.90
16974;DHT22;8603;46.944;7.412;2023-07-30T12:28:50;25.30;98.40
16974;DHT22;8603;46.944;7.412;2023-07-30T12:31:16;25.40;99.30
16974;DHT22;8603;46.944;7.412;2023-07-30T12:33:42;25.50;98.40
16974;DHT22;8603;46.944;7.412;2023-07-30T12:36:08;25.50;99.90
16974;DHT22;8603;46.944;7.412;2023-07-30T12:38:34;25.40;98.00
16974;DHT22;8603;46.944;7.412;2023-07-30T12:40:59;25.40;98.10
16974;DHT22;8603;46.944;7.412;2023-07-30T12:43:25;25.40;98.70
16974;DHT22;8603;46.944;7.412;2023-07-30T12:45:51;25.50;97.40
16974;DHT22;8603;46.944;7.412;2023-07-30T12:48:16;25.60;97.20
16974;DHT22;8603;46.944;7.412;2023-07-30T12:50:42;25.70;97.30
16974;DHT22;8603;46.944;7.412;2023-07-30T12:53:08;25.80;97.80
16974;DHT22;8603;46.944;7.412;2023-07-30T12:55:33;25.80;96.60
16974;DHT22;8603;46.944;7.412;2023-07-30T12:57:59;25.90;97.40
16974;DHT22;8603;46.944;7.412;2023-07-30T13:00:25;25.90;97.20
16974;DHT22;8603;46.944;7.412;2023-07-30T13:02:50;25.90;97.10
16974;DHT22;8603;46.944;7.412;2023-07-30T13:05:20;25.90;96.50
16974;DHT22;8603;46.944;7.412;2023-07-30T13:07:46;26.00;95.70
16974;DHT22;8603;46.944;7.412;2023-07-30T13:10:12;26.00;95.70
16974;DHT22;8603;46.944;7.412;2023-07-30T13:12:37;25.90;96.50
16974;DHT22;8603;46.944;7.412;2023-07-30T13:15:03;25.90;97.10
16974;DHT22;8603;46.944;7.412;2023-07-30T13:17:29;26.00;95.70
16974;DHT22;8603;46.944;7.412;2023-07-30T13:19:57;26.10;96.30
16974;DHT22;8603;46.944;7.412;2023-07-30T13:22:23;26.00;94.90
16974;DHT22;8603;46.944;7.412;2023-07-30T13:24:49;26.10;94.40
16974;DHT22;8603;46.944;7.412;2023-07-30T13:27:18;26.20;94.30
16974;DHT22;8603;46.944;7.412;2023-07-30T13:29:44;26.20;94.10
16974;DHT22;8603;46.944;7.412;2023-07-30T13:32:10;26.20;94.40
16974;DHT22;8603;46.944;7.412;2023-07-30T13:34:39;26.30;94.80
16974;DHT22;8603;46.944;7.412;2023-07-30T13:37:05;26.40;94.20
16974;DHT22;8603;46.944;7.412;2023-07-30T13:39:30;26.30;92.90
16974;DHT22;8603;46.944;7.412;2023-07-30T13:41:56;26.20;92.70
16974;DHT22;8603;46.944;7.412;2023-07-30T13:44:21;26.10;92.30
16974;DHT22;8603;46.944;7.412;2023-07-30T13:46:47;26.10;92.50
16974;DHT22;8603;46.944;7.412;2023-07-30T13:49:12;26.20;92.10
16974;DHT22;8603;46.944;7.412;2023-07-30T13:51:38;26.20;92.80
16974;DHT22;8603;46.944;7.412;2023-07-30T13:54:03;26.30;92.10
16974;DHT22;8603;46.944;7.412;2023-07-30T13:56:33;26.30;92.20
16974;DHT22;8603;46.944;7.412;2023-07-30T13:58:59;26.30;91.40
16974;DHT22;8603;46.944;7.412;2023-07-30T14:01:24;26.20;92.10
16974;DHT22;8603;46.944;7.412;2023-07-30T14:03:50;26.10;91.80
16974;DHT22;8603;46.944;7.412;2023-07-30T14:06:15;26.10;91.60
16974;DHT22;8603;46.944;7.412;2023-07-30T14:08:43;26.00;91.70
16974;DHT22;8603;46.944;7.412;2023-07-30T14:11:09;25.90;91.80
16974;DHT22;8603;46.944;7.412;2023-07-30T14:13:34;25.90;91.40
16974;DHT22;8603;46.944;7.412;2023-07-30T14:16:00;25.80;91.40
16974;DHT22;8603;46.944;7.412;2023-07-30T14:18:25;25.90;92.30
16974;DHT22;8603;46.944;7.412;2023-07-30T14:20:51;26.00;92.10
16974;DHT22;8603;46.944;7.412;2023-07-30T14:23:17;26.10;91.50
16974;DHT22;8603;46.944;7.412;2023-07-30T14:25:43;26.10;91.60
16974;DHT22;8603;46.944;7.412;2023-07-30T14:28:08;26.00;91.50
16974;DHT22;8603;46.944;7.412;2023-07-30T14:30:34;26.00;91.40
16974;DHT22;8603;46.944;7.412;2023-07-30T14:33:04;26.00;91.20
16974;DHT22;8603;46.944;7.412;2023-07-30T14:35:29;26.10;92.00
16974;DHT22;8603;46.944;7.412;2023-07-30T14:37:58;26.10;91.50
16974;DHT22;8603;46.944;7.412;2023-07-30T14:40:23;26.10;91.10
16974;DHT22;8603;46.944;7.412;2023-07-30T14:42:49;26.10;91.80
16974;DHT22;8603;46.944;7.412;2023-07-30T14:45:14;26.20;91.80
16974;DHT22;8603;46.944;7.412;2023-07-30T14:47:40;26.10;91.60
16974;DHT22;8603;46.944;7.412;2023-07-30T14:50:06;26.10;91.60
16974;DHT22;8603;46.944;7.412;2023-07-30T14:52:32;25.90;90.80
16974;DHT22;8603;46.944;7.412;2023-07-30T14:54:57;25.90;90.80
16974;DHT22;8603;46.944;7.412;2023-07-30T14:57:23;25.90;90.60
16974;DHT22;8603;46.944;7.412;2023-07-30T14:59:51;25.70;90.60
16974;DHT22;8603;46.944;7.412;2023-07-30T15:02:18;25.70;91.10
16974;DHT22;8603;46.944;7.412;2023-07-30T15:04:43;25.80;90.80
16974;DHT22;8603;46.944;7.412;2023-07-30T15:07:09;25.90;91.10
16974;DHT22;8603;46.944;7.412;2023-07-30T15:09:35;25.90;89.80
16974;DHT22;8603;46.944;7.412;2023-07-30T15:12:02;26.00;90.50
16974;DHT22;8603;46.944;7.412;2023-07-30T15:14:28;25.90;88.70
16974;DHT22;8603;46.944;7.412;2023-07-30T15:16:54;25.90;88.40
16974;DHT22;8603;46.944;7.412;2023-07-30T15:19:20;25.80;88.50
16974;DHT22;8603;46.944;7.412;2023-07-30T15:21:45;25.60;88.20
16974;DHT22;8603;46.944;7.412;2023-07-30T15:24:11;25.60;89.10
16974;DHT22;8603;46.944;7.412;2023-07-30T15:26:37;25.40;88.20
16974;DHT22;8603;46.944;7.412;2023-07-30T15:29:02;25.30;88.80
16974;DHT22;8603;46.944;7.412;2023-07-30T15:31:28;25.20;88.80
16974;DHT22;8603;46.944;7.412;2023-07-30T15:33:54;25.20;89.10
16974;DHT22;8603;46.944;7.412;2023-07-30T15:36:22;25.30;89.10
16974;DHT22;8603;46.944;7.412;2023-07-30T15:38:48;25.20;88.10
16974;DHT22;8603;46.944;7.412;2023-07-30T15:41:19;25.20;87.40
16974;DHT22;8603;46.944;7.412;2023-07-30T15:43:47;25.20;88.20